Time;durP1;ratioP1;P1;durP2;ratioP2;P2;SDS_P1;SDS_P2;PMS_P1;PMS_P2;Temp;Humidity;BMP_temperature;BMP_pressure;BME280_temperature;BME280_humidity;BME280_pressure;Samples;Min_cycle;Max_cycle;Signal;HPM_P1;HPM_P2
2022/07/08 00:00:05;;;;;;;8.03;3.67;;;;;;;16.48;100.00;99831.38;1729397;82;21067;-62
2022/07/08 00:02:33;;;;;;;5.97;3.58;;;;;;;16.52;100.00;99831.58;1721421;82;21083;-62
2022/07/08 00:05:00;;;;;;;6.50;3.50;;;;;;;16.53;100.00;99830.47;1715343;82;21147;-62
2022/07/08 00:07:27;;;;;;;5.90;3.45;;;;;;;16.54;100.00;99829.35;1720977;82;21044;-62
2022/07/08 00:09:53;;;;;;;6.75;3.65;;;;;;;16.51;100.00;99820.36;1722961;82;21565;-62
2022/07/08 00:12:20;;;;;;;;;;;;;;;16.47;100.00;99819.34;1725259;82;21624;-62
2022/07/08 00:14:47;;;;;;;7.55;3.40;;;;;;;16.47;100.00;99827.03;1727184;82;20114;-62
2022/07/08 00:17:14;;;;;;;8.35;3.60;;;;;;;16.44;100.00;99840.80;1663215;86;21554;-63
2022/07/08 00:19:40;;;;;;;;;;;;;;;16.50;100.00;99848.95;1725444;82;21562;-62
2022/07/08 00:22:06;;;;;;;8.75;3.90;;;;;;;16.52;100.00;99850.26;1723993;81;20453;-62
2022/07/08 00:24:33;;;;;;;6.33;3.92;;;;;;;16.52;100.00;99861.25;1716056;82;21914;-62
2022/07/08 00:27:00;;;;;;;9.63;3.85;;;;;;;16.54;100.00;99854.09;1727488;82;21538;-62
2022/07/08 00:29:26;;;;;;;6.42;3.62;;;;;;;16.58;100.00;99853.76;1735187;82;21559;-62
2022/07/08 00:31:53;;;;;;;6.10;4.00;;;;;;;16.61;100.00;99858.63;1726464;82;20964;-62
2022/07/08 00:34:20;;;;;;;;;;;;;;;16.65;100.00;99854.15;1745884;81;21031;-62
2022/07/08 00:36:46;;;;;;;6.17;3.50;;;;;;;16.68;100.00;99856.27;1729620;82;20428;-62
2022/07/08 00:39:12;;;;;;;6.95;3.87;;;;;;;16.60;100.00;99852.88;1734387;82;21122;-62
2022/07/08 00:41:39;;;;;;;;;;;;;;;16.58;100.00;99854.55;1750343;82;21019;-62
2022/07/08 00:44:06;;;;;;;7.03;3.77;;;;;;;16.60;100.00;99850.13;1736169;82;20128;-62
2022/07/08 00:46:33;;;;;;;7.10;4.00;;;;;;;16.56;100.00;99844.98;1745583;82;21027;-62
2022/07/08 00:49:00;;;;;;;5.80;4.05;;;;;;;16.55;100.00;99845.52;1740165;82;21562;-62
2022/07/08 00:51:27;;;;;;;6.33;4.10;;;;;;;16.56;100.00;99846.36;1736429;82;21047;-63
2022/07/08 00:53:53;;;;;;;;;;;;;;;16.56;100.00;99847.19;1738414;82;21138;-62
2022/07/08 00:56:22;;;;;;;8.75;4.03;;;;;;;16.56;100.00;99851.30;1733064;82;20114;-62
2022/07/08 00:58:49;;;;;;;5.90;4.15;;;;;;;16.54;100.00;99849.96;1745352;82;21058;-62
2022/07/08 01:01:16;;;;;;;7.47;4.22;;;;;;;16.56;100.00;99847.19;1744702;82;21035;-62
2022/07/08 01:03:44;;;;;;;7.22;4.37;;;;;;;16.60;100.00;99848.20;1726341;82;21585;-62
2022/07/08 01:06:11;;;;;;;5.65;4.30;;;;;;;16.63;100.00;99835.77;1732134;82;21031;-62
2022/07/08 01:08:39;;;;;;;7.60;4.42;;;;;;;16.63;100.00;99835.77;1727184;82;21070;-62
2022/07/08 01:11:09;;;;;;;5.78;4.15;;;;;;;16.59;100.00;99833.37;1742009;82;21051;-62
2022/07/08 01:13:36;;;;;;;7.97;4.65;;;;;;;16.55;100.00;99830.40;1743953;82;21052;-62
2022/07/08 01:16:05;;;;;;;7.87;4.20;;;;;;;16.52;100.00;99829.65;1744484;82;21414;-62
2022/07/08 01:18:32;;;;;;;9.55;4.42;;;;;;;16.52;100.00;99827.45;1745382;82;21015;-63
2022/07/08 01:20:59;;;;;;;6.17;4.45;;;;;;;16.49;100.00;99817.91;1744205;82;21501;-62
2022/07/08 01:23:25;;;;;;;6.62;4.75;;;;;;;16.50;100.00;99820.91;1743363;82;21962;-63
2022/07/08 01:25:52;;;;;;;6.42;4.35;;;;;;;16.50;100.00;99822.29;1736054;82;20975;-62
2022/07/08 01:28:18;;;;;;;7.50;4.30;;;;;;;16.50;100.00;99828.34;1735704;82;21127;-62
2022/07/08 01:30:45;;;;;;;;;;;;;;;16.51;100.00;99823.11;1735477;82;20982;-62
2022/07/08 01:33:12;;;;;;;;;;;;;;;16.54;100.00;99815.61;1748006;82;20170;-62
2022/07/08 01:35:38;;;;;;;5.97;4.20;;;;;;;16.52;100.00;99816.47;1730862;82;20132;-62
2022/07/08 01:38:04;;;;;;;;;;;;;;;16.50;100.00;99826.41;1735407;82;21050;-62
2022/07/08 01:40:31;;;;;;;8.38;4.03;;;;;;;16.52;100.00;99835.14;1729190;82;20400;-62
2022/07/08 01:42:57;;;;;;;;;;;;;;;16.51;100.00;99836.26;1752928;82;20948;-62
2022/07/08 01:45:24;;;;;;;7.90;4.42;;;;;;;16.53;100.00;99842.83;1738357;82;20119;-63
2022/07/08 01:47:51;;;;;;;8.40;4.37;;;;;;;16.43;100.00;99834.26;1731109;82;21054;-62
2022/07/08 01:50:18;;;;;;;5.65;4.10;;;;;;;16.43;100.00;99832.33;1725922;82;21542;-63
2022/07/08 01:52:45;;;;;;;6.72;4.15;;;;;;;16.45;100.00;99838.88;1726498;82;21098;-62
2022/07/08 01:55:11;;;;;;;7.17;3.92;;;;;;;16.48;100.00;99838.25;1729948;82;21082;-62
2022/07/08 01:57:38;;;;;;;5.70;4.22;;;;;;;16.51;100.00;99839.00;1729356;82;21129;-63
2022/07/08 02:00:07;;;;;;;7.10;3.98;;;;;;;16.50;100.00;99833.84;1735584;80;21106;-62
2022/07/08 02:02:39;;;;;;;7.72;3.85;;;;;;;16.49;100.00;99841.27;1736214;82;21018;-62
2022/07/08 02:05:07;;;;;;;7.10;3.80;;;;;;;16.49;100.00;99837.70;1742334;82;21082;-62
2022/07/08 02:07:34;;;;;;;5.87;3.70;;;;;;;16.51;100.00;99836.84;1735081;82;20976;-62
2022/07/08 02:10:02;;;;;;;6.35;3.95;;;;;;;16.53;100.00;99838.16;1725836;82;21070;-62
2022/07/08 02:12:29;;;;;;;7.03;3.83;;;;;;;16.55;100.00;99839.20;1731391;82;21063;-62
2022/07/08 02:15:06;;;;;;;5.78;3.80;;;;;;;16.53;100.00;99842.28;1736651;82;21149;-62
2022/07/08 02:17:39;;;;;;;8.05;4.22;;;;;;;16.56;100.00;99847.73;1723481;82;21542;-62
2022/07/08 02:20:08;;;;;;;6.65;3.47;;;;;;;16.51;100.00;99843.71;1735540;82;22155;-62
2022/07/08 02:22:35;;;;;;;6.83;3.80;;;;;;;16.50;100.00;99850.32;1750319;82;20991;-62
2022/07/08 02:25:01;;;;;;;;;;;;;;;16.52;100.00;99853.00;1751223;82;21577;-63
2022/07/08 02:27:27;;;;;;;5.97;3.55;;;;;;;16.53;100.00;99852.45;1744787;82;20150;-62
2022/07/08 02:29:54;;;;;;;6.62;4.10;;;;;;;16.47;100.00;99856.44;1742231;82;21027;-61
2022/07/08 02:32:20;;;;;;;6.35;3.90;;;;;;;16.46;100.00;99854.80;1740273;82;20995;-62
2022/07/08 02:34:47;;;;;;;6.42;3.90;;;;;;;16.45;100.00;99853.98;1731635;82;21019;-62
2022/07/08 02:37:13;;;;;;;5.65;3.33;;;;;;;16.40;100.00;99846.66;1734386;82;21310;-62
2022/07/08 02:42:24;;;;;;;6.33;3.95;;;;;;;16.51;100.00;99840.97;1813490;78;22842;-60
2022/07/08 02:44:51;;;;;;;8.50;4.12;;;;;;;16.40;100.00;99840.37;1761879;80;21083;-60
2022/07/08 02:47:17;;;;;;;8.25;4.83;;;;;;;16.44;100.00;99834.48;1783674;80;21090;-61
2022/07/08 02:49:45;;;;;;;6.80;3.80;;;;;;;16.49;100.00;99833.58;1771412;80;21156;-61
2022/07/08 02:52:11;;;;;;;;;;;;;;;16.51;100.00;99835.47;1767797;80;21061;-61
2022/07/08 02:54:38;;;;;;;7.30;3.90;;;;;;;16.55;100.00;99834.52;1757811;80;20100;-60
2022/07/08 02:57:05;;;;;;;5.75;3.77;;;;;;;16.54;100.00;99841.72;1770383;80;21094;-62
2022/07/08 02:59:32;;;;;;;6.40;3.72;;;;;;;16.58;100.00;99838.64;1779001;80;21090;-62
2022/07/08 03:01:58;;;;;;;6.22;3.80;;;;;;;16.64;100.00;99844.27;1759435;80;21054;-62
2022/07/08 03:04:25;;;;;;;4.97;3.35;;;;;;;16.67;100.00;99841.72;1763664;80;21172;-62
2022/07/08 03:06:52;;;;;;;7.97;3.98;;;;;;;16.73;100.00;99845.97;1775485;80;21035;-62
2022/07/08 03:09:19;;;;;;;5.87;3.30;;;;;;;16.80;100.00;99841.41;1777166;80;21106;-62
2022/07/08 03:11:45;;;;;;;4.80;3.22;;;;;;;16.82;100.00;99839.19;1769516;80;21086;-62
2022/07/08 03:14:12;;;;;;;5.15;2.87;;;;;;;16.85;100.00;99849.56;1772076;80;21566;-62
2022/07/08 03:16:38;;;;;;;7.03;3.05;;;;;;;16.91;100.00;99842.25;1776776;80;21027;-62
2022/07/08 03:19:06;;;;;;;5.75;2.77;;;;;;;16.99;100.00;99849.50;1761536;80;21074;-62
2022/07/08 03:21:33;;;;;;;5.42;2.58;;;;;;;17.02;100.00;99842.00;1769814;80;21066;-62
2022/07/08 03:23:59;;;;;;;4.58;2.42;;;;;;;17.02;100.00;99835.13;1775521;80;21378;-63
2022/07/08 03:26:25;;;;;;;;;;;;;;;17.09;100.00;99839.08;1767615;80;20999;-62
2022/07/08 03:28:52;;;;;;;5.90;2.60;;;;;;;17.14;100.00;99845.02;1779879;80;20134;-63
2022/07/08 03:31:20;;;;;;;5.53;3.10;;;;;;;17.15;100.00;99841.13;1734489;80;21070;-62
2022/07/08 03:33:46;;;;;;;5.65;2.60;;;;;;;17.16;100.00;99847.70;1773619;80;21070;-62
2022/07/08 03:36:13;;;;;;;4.55;2.80;;;;;;;17.19;100.00;99850.38;1781894;80;21014;-62
2022/07/08 03:38:40;;;;;;;5.42;2.58;;;;;;;17.27;100.00;99841.39;1759957;80;21601;-62
2022/07/08 03:41:23;;;;;;;2.92;1.87;;;;;;;17.36;100.00;99844.44;1765634;80;21558;-62
2022/07/08 03:43:52;;;;;;;4.15;2.25;;;;;;;17.45;100.00;99843.69;1750428;81;21016;-63
2022/07/08 03:46:20;;;;;;;3.98;2.02;;;;;;;17.49;100.00;99841.94;1756046;81;21530;-62
2022/07/08 03:48:47;;;;;;;3.65;2.08;;;;;;;17.54;100.00;99845.92;1742998;81;21841;-62
2022/07/08 03:51:14;;;;;;;3.22;2.00;;;;;;;17.63;100.00;99844.08;1742986;81;21086;-62
2022/07/08 03:53:42;;;;;;;3.05;1.95;;;;;;;17.68;100.00;99841.17;1758384;81;21566;-63
2022/07/08 03:56:10;;;;;;;3.83;2.00;;;;;;;17.75;100.00;99840.97;1747027;81;21071;-63
2022/07/08 03:58:37;;;;;;;3.02;1.62;;;;;;;17.84;100.00;99841.02;1755370;81;21565;-62
2022/07/08 04:01:04;;;;;;;2.60;1.77;;;;;;;17.94;100.00;99844.05;1750518;81;21989;-62
2022/07/08 04:03:31;;;;;;;3.75;1.65;;;;;;;17.97;100.00;99841.48;1755752;81;21072;-62
2022/07/08 04:05:58;;;;;;;2.67;1.60;;;;;;;18.00;100.00;99840.84;1762492;81;21079;-63
2022/07/08 04:08:26;;;;;;;3.33;1.70;;;;;;;18.03;100.00;99840.20;1757461;81;21039;-63
2022/07/08 04:10:54;;;;;;;1.80;1.35;;;;;;;18.09;100.00;99840.88;1755398;81;21119;-63
2022/07/08 04:13:21;;;;;;;3.02;1.60;;;;;;;18.05;100.00;99841.27;1751101;81;21574;-63
2022/07/08 04:15:47;;;;;;;5.12;1.87;;;;;;;18.05;100.00;99840.70;1754060;81;21879;-63
2022/07/08 04:18:14;;;;;;;4.83;2.02;;;;;;;18.09;100.00;99844.45;1763692;81;21122;-63
2022/07/08 04:20:40;;;;;;;2.47;1.60;;;;;;;18.11;100.00;99838.05;1745036;81;21094;-63
2022/07/08 04:23:07;;;;;;;2.83;1.50;;;;;;;18.10;100.00;99832.31;1741071;82;21099;-64
2022/07/08 04:25:33;;;;;;;2.62;1.40;;;;;;;18.08;100.00;99831.80;1746381;81;21031;-64
2022/07/08 04:28:00;;;;;;;4.12;1.70;;;;;;;18.07;100.00;99837.05;1749376;81;21078;-63
2022/07/08 04:30:27;;;;;;;2.95;1.50;;;;;;;18.12;100.00;99836.92;1768035;81;21020;-63
2022/07/08 04:32:54;;;;;;;4.00;1.82;;;;;;;18.17;100.00;99835.98;1747140;81;21071;-63
2022/07/08 04:35:20;;;;;;;3.20;1.40;;;;;;;18.16;100.00;99825.52;1752373;81;21648;-63
2022/07/08 04:37:48;;;;;;;3.72;1.65;;;;;;;18.18;100.00;99830.12;1752579;81;21004;-64
2022/07/08 04:40:15;;;;;;;3.65;1.90;;;;;;;18.25;100.00;99829.66;1759945;81;20964;-64
2022/07/08 04:42:42;;;;;;;3.98;1.72;;;;;;;18.35;100.00;99830.77;1758858;81;21059;-63
2022/07/08 04:45:10;;;;;;;4.95;1.92;;;;;;;18.36;100.00;99830.42;1750066;81;21016;-62
2022/07/08 04:47:37;;;;;;;4.12;1.95;;;;;;;18.35;100.00;99830.17;1762320;81;21047;-62
2022/07/08 04:50:05;;;;;;;5.70;2.05;;;;;;;18.39;100.00;99831.16;1752743;81;21027;-62
2022/07/08 04:52:32;;;;;;;3.15;1.55;;;;;;;18.46;100.00;99831.27;1758818;81;20996;-62
2022/07/08 04:54:58;;;;;;;4.83;2.20;;;;;;;18.53;100.00;99831.64;1759887;81;21035;-62
2022/07/08 04:57:36;;;;;;;5.33;2.17;;;;;;;18.58;100.00;99839.17;1762268;81;21035;-63
2022/07/08 05:00:04;;;;;;;4.35;2.10;;;;;;;18.56;100.00;99831.81;1669819;85;21112;-63
2022/07/08 05:02:31;;;;;;;5.17;2.47;;;;;;;18.56;100.00;99840.64;1718913;82;21029;-64
2022/07/08 05:04:57;;;;;;;4.33;2.30;;;;;;;18.65;100.00;99836.75;1723672;82;21091;-64
2022/07/08 05:07:24;;;;;;;6.08;2.40;;;;;;;18.73;100.00;99841.47;1718397;82;21052;-64
2022/07/08 05:09:50;;;;;;;4.30;2.42;;;;;;;18.78;100.00;99840.48;1724220;81;21128;-64
2022/07/08 05:12:16;;;;;;;4.40;2.35;;;;;;;18.85;100.00;99838.05;1732254;82;21597;-64
2022/07/08 05:14:43;;;;;;;5.00;2.12;;;;;;;18.94;100.00;99837.50;1721507;82;21620;-64
2022/07/08 05:17:11;;;;;;;3.77;2.45;;;;;;;19.01;100.00;99836.45;1714998;82;21080;-64
2022/07/08 05:19:38;;;;;;;4.12;2.20;;;;;;;19.12;100.00;99827.27;1723863;82;21055;-62
2022/07/08 05:22:04;;;;;;;4.55;2.30;;;;;;;19.27;100.00;99833.09;1720825;82;21043;-63
2022/07/08 05:24:31;;;;;;;4.67;1.95;;;;;;;19.42;100.00;99826.84;1725278;82;21416;-64
2022/07/08 05:26:58;;;;;;;4.03;1.90;;;;;;;19.50;100.00;99826.02;1690169;83;21024;-64
2022/07/08 05:29:25;;;;;;;4.03;2.02;;;;;;;19.54;100.00;99829.75;1690698;84;21143;-62
2022/07/08 05:31:53;;;;;;;7.10;2.22;;;;;;;19.58;100.00;99826.58;1731623;82;21073;-66
2022/07/08 05:34:21;;;;;;;3.90;1.82;;;;;;;19.73;100.00;99835.13;1736059;82;21083;-64
2022/07/08 05:36:49;;;;;;;2.65;1.22;;;;;;;19.83;100.00;99836.17;1715794;82;20992;-65
2022/07/08 05:39:15;;;;;;;2.98;1.42;;;;;;;19.88;100.00;99835.16;1729476;82;21015;-66
2022/07/08 05:41:41;;;;;;;2.62;1.40;;;;;;;19.85;100.00;99828.91;1732973;82;21011;-65
2022/07/08 05:44:08;;;;;;;4.42;1.30;;;;;;;19.82;100.00;99836.48;1705661;82;21053;-65
2022/07/08 05:46:34;;;;;;;2.35;1.32;;;;;;;19.79;100.00;99835.77;1721183;82;21003;-64
2022/07/08 05:49:01;;;;;;;3.62;1.20;;;;;;;19.78;100.00;99841.86;1738699;82;21000;-64
2022/07/08 05:51:28;;;;;;;4.75;1.30;;;;;;;19.80;100.00;99842.33;1729382;82;20960;-63
2022/07/08 05:53:55;;;;;;;2.33;1.10;;;;;;;19.89;100.00;99838.16;1708472;82;21492;-64
2022/07/08 05:56:24;;;;;;;4.45;1.07;;;;;;;19.91;100.00;99840.02;1722955;82;21041;-65
2022/07/08 05:58:51;;;;;;;1.42;0.95;;;;;;;19.91;100.00;99846.92;1718788;82;21043;-64
2022/07/08 06:01:17;;;;;;;2.05;1.20;;;;;;;19.94;100.00;99841.33;1736763;82;20945;-66
2022/07/08 06:03:43;;;;;;;4.70;1.30;;;;;;;19.98;100.00;99842.29;1727424;82;21598;-63
2022/07/08 06:06:10;;;;;;;5.87;1.40;;;;;;;20.04;100.00;99841.77;1735571;82;21478;-65
2022/07/08 06:08:37;;;;;;;2.72;1.30;;;;;;;20.05;100.00;99854.42;1732278;82;21480;-65
2022/07/08 06:11:04;;;;;;;6.08;1.40;;;;;;;20.04;100.00;99851.44;1727731;82;21064;-67
2022/07/08 06:13:31;;;;;;;4.67;1.27;;;;;;;20.04;100.00;99863.06;1733318;82;21086;-67
2022/07/08 06:15:59;;;;;;;4.15;1.52;;;;;;;20.03;100.00;99865.01;1720250;82;21821;-67
2022/07/08 06:18:26;;;;;;;5.95;1.87;;;;;;;19.92;100.00;99862.36;1723726;82;21068;-67
2022/07/08 06:20:52;;;;;;;3.70;1.85;;;;;;;19.78;100.00;99852.09;1733053;83;21012;-67
2022/07/08 06:23:18;;;;;;;2.17;1.50;;;;;;;19.71;100.00;99868.36;1685156;84;21658;-66
2022/07/08 06:25:45;;;;;;;3.10;2.00;;;;;;;19.60;100.00;99865.70;1679356;85;21041;-67
2022/07/08 06:28:11;;;;;;;6.58;1.90;;;;;;;19.49;100.00;99861.66;1667948;84;21629;-66
2022/07/08 06:30:38;;;;;;;3.87;1.80;;;;;;;19.43;100.00;99860.22;1662055;85;21056;-65
2022/07/08 06:33:05;;;;;;;3.25;1.77;;;;;;;19.34;100.00;99851.94;1675755;83;21051;-67
2022/07/08 06:35:33;;;;;;;3.67;1.60;;;;;;;19.29;100.00;99843.81;1676442;84;21472;-66
2022/07/08 06:37:59;;;;;;;3.45;1.80;;;;;;;19.34;100.00;99836.16;1728086;81;21062;-67
2022/07/08 06:40:27;;;;;;;4.80;2.08;;;;;;;19.33;100.00;99834.55;1724098;82;21586;-68
2022/07/08 06:42:54;;;;;;;4.42;1.70;;;;;;;19.42;100.00;99830.98;1733541;82;21072;-68
2022/07/08 06:45:20;;;;;;;3.52;1.75;;;;;;;19.60;100.00;99825.09;1735619;82;21499;-66
2022/07/08 06:47:46;;;;;;;3.35;1.77;;;;;;;19.80;100.00;99818.84;1738312;82;21044;-65
2022/07/08 06:50:13;;;;;;;4.87;1.62;;;;;;;19.98;100.00;99811.30;1719105;82;21557;-69
2022/07/08 06:52:40;;;;;;;4.00;1.32;;;;;;;20.12;100.00;99810.50;1724182;82;20991;-68
2022/07/08 06:55:07;;;;;;;2.83;1.32;;;;;;;20.15;100.00;99797.42;1717947;82;21106;-67
2022/07/08 06:57:35;;;;;;;3.92;1.12;;;;;;;20.12;100.00;99797.28;1684894;83;20999;-69
2022/07/08 07:00:04;;;;;;;2.42;1.15;;;;;;;20.09;100.00;99787.67;1738041;82;21079;-67
2022/07/08 07:02:32;;;;;;;2.62;1.00;;;;;;;20.16;100.00;99792.11;1742656;82;20960;-68
2022/07/08 07:04:59;;;;;;;1.70;0.93;;;;;;;20.17;100.00;99793.73;1744821;82;21550;-68
2022/07/08 07:07:25;;;;;;;1.75;0.90;;;;;;;20.23;100.00;99789.63;1742185;82;21019;-67
2022/07/08 07:09:52;;;;;;;2.10;1.00;;;;;;;20.29;100.00;99784.77;1743092;82;21059;-65
2022/07/08 07:12:19;;;;;;;1.47;0.90;;;;;;;20.39;100.00;99780.22;1736490;82;21086;-68
2022/07/08 07:14:46;;;;;;;1.35;0.78;;;;;;;20.58;100.00;99770.88;1722883;82;21142;-68
2022/07/08 07:17:14;;;;;;;3.75;0.80;;;;;;;20.59;100.00;99763.39;1729298;82;21107;-67
2022/07/08 07:19:41;;;;;;;1.57;0.57;;;;;;;20.54;100.00;99758.90;1705636;82;21633;-69
2022/07/08 07:22:07;;;;;;;1.25;0.55;;;;;;;20.43;100.00;99752.72;1723740;82;21043;-66
2022/07/08 07:24:34;;;;;;;5.97;2.22;;;;;;;20.26;100.00;99764.08;1723455;82;21067;-69
2022/07/08 07:27:01;;;;;;;2.70;0.60;;;;;;;20.19;100.00;99767.95;1718046;82;21011;-70
2022/07/08 07:29:28;;;;;;;2.20;0.57;;;;;;;20.13;100.00;99765.14;1710357;82;21089;-72
2022/07/08 07:31:55;;;;;;;2.22;0.60;;;;;;;20.00;100.00;99752.39;1729668;82;20984;-68
2022/07/08 07:34:21;;;;;;;2.72;0.90;;;;;;;19.94;100.00;99758.45;1724409;82;21168;-68
2022/07/08 07:36:49;;;;;;;4.53;0.72;;;;;;;19.92;100.00;99747.71;1716782;83;21076;-67
2022/07/08 07:39:16;;;;;;;1.15;0.60;;;;;;;19.93;100.00;99744.38;1726982;82;21060;-68
2022/07/08 07:41:43;;;;;;;1.00;0.50;;;;;;;20.00;100.00;99741.34;1701541;83;21028;-70
2022/07/08 07:44:09;;;;;;;1.30;0.60;;;;;;;19.98;100.00;99744.98;1722670;82;21618;-67
2022/07/08 07:46:36;;;;;;;2.12;0.80;;;;;;;19.98;100.00;99746.38;1726126;82;20992;-67
2022/07/08 07:49:04;;;;;;;1.98;0.70;;;;;;;20.02;100.00;99750.09;1730098;82;21052;-67
2022/07/08 07:51:31;;;;;;;0.90;0.50;;;;;;;20.08;100.00;99750.16;1713092;82;20977;-64
2022/07/08 07:53:58;;;;;;;13.28;4.37;;;;;;;20.16;100.00;99750.66;1709452;82;21059;-67
2022/07/08 07:56:25;;;;;;;7.37;2.47;;;;;;;20.24;100.00;99760.04;1714582;82;20972;-66
2022/07/08 07:58:52;;;;;;;5.62;2.25;;;;;;;20.34;100.00;99758.30;1736059;82;21111;-67
2022/07/08 08:01:18;;;;;;;19.92;6.95;;;;;;;20.43;100.00;99767.92;1710385;82;20973;-65
2022/07/08 08:03:46;;;;;;;3.67;0.72;;;;;;;20.57;100.00;99773.43;1722240;81;21067;-66
2022/07/08 08:06:13;;;;;;;1.75;0.80;;;;;;;20.71;100.00;99773.16;1702204;82;21503;-66
2022/07/08 08:08:40;;;;;;;2.35;0.60;;;;;;;20.89;100.00;99776.58;1732276;82;21008;-66
2022/07/08 08:11:07;;;;;;;1.95;0.78;;;;;;;21.16;100.00;99772.69;1730937;82;21495;-66
2022/07/08 08:13:34;;;;;;;2.90;0.90;;;;;;;21.41;100.00;99778.29;1724018;82;21091;-67
2022/07/08 08:16:01;;;;;;;3.08;0.82;;;;;;;21.63;100.00;99782.84;1732562;82;21003;-67
2022/07/08 08:18:28;;;;;;;4.22;1.00;;;;;;;21.62;100.00;99779.02;1680351;83;21072;-68
2022/07/08 08:20:54;;;;;;;3.55;1.22;;;;;;;21.44;100.00;99773.45;1723796;82;21027;-67
2022/07/08 08:23:21;;;;;;;2.47;0.95;;;;;;;21.27;100.00;99772.49;1728844;82;21095;-67
2022/07/08 08:25:48;;;;;;;3.12;1.22;;;;;;;21.14;100.00;99770.84;1723005;82;21538;-68
2022/07/08 08:28:14;;;;;;;2.15;1.10;;;;;;;21.12;100.00;99782.00;1736892;82;21118;-68
2022/07/08 08:30:41;;;;;;;2.72;1.22;;;;;;;21.06;100.00;99775.04;1731548;82;21035;-66
2022/07/08 08:33:07;;;;;;;5.33;2.60;;;;;;;20.92;100.00;99772.56;1723049;81;21543;-66
2022/07/08 08:35:34;;;;;;;4.33;2.62;;;;;;;20.81;100.00;99771.36;1727933;81;21019;-66
2022/07/08 08:38:00;;;;;;;4.08;1.95;;;;;;;20.73;100.00;99773.61;1730202;82;21063;-65
2022/07/08 08:40:27;;;;;;;3.30;1.10;;;;;;;20.71;100.00;99775.92;1720765;82;21594;-64
2022/07/08 08:42:54;;;;;;;1.77;1.00;;;;;;;20.70;100.00;99783.41;1729640;82;21001;-66
2022/07/08 08:45:20;;;;;;;2.42;1.02;;;;;;;20.73;100.00;99778.58;1720249;82;21058;-66
2022/07/08 08:47:49;;;;;;;4.22;0.82;;;;;;;20.96;100.00;99785.14;1738012;82;21011;-65
2022/07/08 08:53:02;;;;;;;3.00;0.72;;;;;;;21.14;100.00;99783.30;1730485;82;20992;-65
2022/07/08 08:55:31;;;;;;;1.10;0.60;;;;;;;21.05;100.00;99780.33;1725242;82;21113;-65
2022/07/08 08:58:02;;;;;;;1.17;0.60;;;;;;;21.00;100.00;99776.41;1724104;81;20988;-65
2022/07/08 09:00:29;;;;;;;1.40;0.80;;;;;;;21.09;100.00;99770.20;1709952;82;21028;-64
2022/07/08 09:02:58;;;;;;;1.98;0.80;;;;;;;21.27;100.00;99769.73;1710078;82;21819;-64
2022/07/08 09:05:25;;;;;;;1.47;0.70;;;;;;;21.34;100.00;99774.13;1699535;83;20996;-66
2022/07/08 09:07:56;;;;;;;1.55;0.60;;;;;;;21.45;100.00;99759.27;1696944;83;20992;-65
2022/07/08 09:10:23;;;;;;;1.27;0.53;;;;;;;21.58;100.00;99769.20;1690937;83;21003;-67
2022/07/08 09:13:10;;;;;;;1.42;0.70;;;;;;;21.69;100.00;99772.34;1703246;83;20996;-65
2022/07/08 09:15:45;;;;;;;5.12;0.62;;;;;;;21.77;100.00;99770.05;1699237;83;21528;-67
2022/07/08 09:18:15;;;;;;;2.25;0.80;;;;;;;21.90;100.00;99786.94;1705794;83;21036;-69
2022/07/08 09:20:51;;;;;;;3.70;1.20;;;;;;;22.01;100.00;99754.84;1690154;83;21020;-67
2022/07/08 09:23:27;;;;;;;2.15;0.50;;;;;;;22.10;100.00;99754.73;1689968;83;21111;-69
2022/07/08 09:25:56;;;;;;;2.37;0.40;;;;;;;22.13;100.00;99748.48;1687996;83;21008;-69
2022/07/08 09:28:43;;;;;;;1.40;0.45;;;;;;;22.20;100.00;99746.75;1704673;82;21567;-69
2022/07/08 09:31:12;;;;;;;0.70;0.37;;;;;;;22.19;100.00;99752.05;1710066;83;21424;-71
2022/07/08 09:33:40;;;;;;;1.65;0.50;;;;;;;22.21;100.00;99734.48;1688185;83;21581;-67
2022/07/08 09:36:08;;;;;;;1.60;0.50;;;;;;;22.27;100.00;99740.03;1667528;85;21044;-69
2022/07/08 09:38:37;;;;;;;2.20;0.57;;;;;;;22.42;100.00;99732.16;1703577;83;21500;-67
2022/07/08 09:41:09;;;;;;;2.37;0.40;;;;;;;22.61;100.00;99732.31;1708464;82;21027;-69
2022/07/08 09:43:49;;;;;;;1.65;0.60;;;;;;;22.70;100.00;99719.96;1689549;83;21606;-67
2022/07/08 09:46:16;;;;;;;1.62;0.70;;;;;;;22.69;100.00;99722.50;1695004;83;21030;-68
2022/07/08 09:48:43;;;;;;;1.02;0.40;;;;;;;22.67;100.00;99733.73;1704933;83;21012;-69
2022/07/08 09:51:10;;;;;;;1.12;0.55;;;;;;;22.66;100.00;99729.30;1696220;83;21500;-68
2022/07/08 09:53:39;;;;;;;1.35;0.50;;;;;;;22.64;100.00;99733.80;1700028;83;21059;-66
2022/07/08 09:56:07;;;;;;;2.52;0.42;;;;;;;22.67;100.00;99733.73;1708006;82;20983;-66
2022/07/08 09:58:34;;;;;;;2.67;0.53;;;;;;;22.73;100.00;99735.09;1700063;83;21039;-66
2022/07/08 10:01:01;;;;;;;1.30;0.40;;;;;;;22.78;100.00;99736.20;1701991;82;21539;-68
2022/07/08 10:03:28;;;;;;;1.07;0.33;;;;;;;22.84;100.00;99732.05;1706882;82;21026;-67
2022/07/08 10:05:55;;;;;;;3.30;0.50;;;;;;;22.85;100.00;99728.08;1724286;82;21388;-67
2022/07/08 10:08:23;;;;;;;2.45;0.50;;;;;;;22.89;100.00;99730.95;1726036;82;21056;-68
2022/07/08 10:10:50;;;;;;;1.02;0.30;;;;;;;23.03;100.00;99729.97;1727509;82;21004;-67
2022/07/08 10:13:19;;;;;;;2.95;0.68;;;;;;;23.19;100.00;99728.86;1721575;82;21083;-69
2022/07/08 10:15:46;;;;;;;1.02;0.50;;;;;;;23.24;100.00;99738.88;1704298;83;21023;-68
2022/07/08 10:18:16;;;;;;;1.32;0.60;;;;;;;23.22;100.00;99740.64;1712285;82;21067;-68
2022/07/08 10:20:54;;;;;;;1.15;0.50;;;;;;;23.22;100.00;99740.64;1725840;82;21079;-71
2022/07/08 10:23:36;;;;;;;2.58;0.70;;;;;;;23.13;100.00;99724.70;1663091;84;21083;-68
2022/07/08 10:26:02;;;;;;;2.60;0.47;;;;;;;23.01;100.00;99727.56;1643323;85;21541;-68
2022/07/08 10:28:37;;;;;;;0.72;0.40;;;;;;;22.99;100.00;99722.93;1677922;84;21556;-68
2022/07/08 10:31:05;;;;;;;1.82;0.60;;;;;;;22.97;100.00;99721.68;1677418;84;21915;-70
2022/07/08 10:33:36;;;;;;;2.50;0.60;;;;;;;22.96;100.00;99731.97;1672390;84;21086;-67
2022/07/08 10:36:08;;;;;;;1.25;0.40;;;;;;;22.83;100.00;99730.42;1661070;84;20996;-67
2022/07/08 10:38:38;;;;;;;1.72;0.62;;;;;;;22.72;100.00;99735.66;1687172;83;21056;-67
2022/07/08 10:41:10;;;;;;;1.87;0.70;;;;;;;22.61;100.00;99742.02;1674990;84;21496;-68
2022/07/08 10:43:53;;;;;;;1.85;0.60;;;;;;;22.46;100.00;99747.72;1701240;84;21095;-71
2022/07/08 10:46:21;;;;;;;1.80;0.40;;;;;;;22.41;100.00;99741.63;1684744;83;21095;-67
2022/07/08 10:48:56;;;;;;;1.00;0.47;;;;;;;22.44;100.00;99742.30;1683503;84;21067;-67
2022/07/08 10:51:29;;;;;;;1.65;0.55;;;;;;;22.55;100.00;99733.72;1729362;82;21368;-68
2022/07/08 10:53:58;;;;;;;1.80;0.47;;;;;;;22.63;100.00;99736.95;1720022;82;21130;-69
2022/07/08 10:56:54;;;;;;;2.35;0.53;;;;;;;22.61;100.00;99736.47;1729801;82;21709;-65
2022/07/08 10:59:29;;;;;;;2.08;0.57;;;;;;;22.56;100.00;99736.73;1719371;82;21031;-66
2022/07/08 11:02:06;;;;;;;0.95;0.40;;;;;;;22.55;100.00;99734.54;1722351;82;21043;-66
2022/07/08 11:04:41;;;;;;;1.47;0.53;;;;;;;22.64;100.00;99733.80;1729739;82;21035;-67
2022/07/08 11:07:24;;;;;;;2.15;0.70;;;;;;;22.75;100.00;99729.98;1741082;82;21447;-67
2022/07/08 11:09:57;;;;;;;2.33;1.05;;;;;;;22.75;100.00;99724.43;1680846;84;22724;-67
2022/07/08 11:12:32;;;;;;;2.20;0.65;;;;;;;22.79;100.00;99728.12;1737070;82;21479;-67
2022/07/08 11:15:00;;;;;;;1.98;0.42;;;;;;;22.76;100.00;99721.89;1717270;82;21090;-67
2022/07/08 11:17:37;;;;;;;1.22;0.42;;;;;;;22.77;100.00;99716.00;1732522;82;21622;-67
2022/07/08 11:20:12;;;;;;;0.95;0.47;;;;;;;22.79;100.00;99723.95;1724006;82;21146;-69
2022/07/08 11:22:40;;;;;;;0.90;0.30;;;;;;;22.83;100.00;99717.12;1708644;82;21019;-66
2022/07/08 11:25:13;;;;;;;1.30;0.50;;;;;;;22.83;100.00;99717.12;1724241;82;21083;-67
2022/07/08 11:27:39;;;;;;;2.52;0.62;;;;;;;22.87;100.00;99718.03;1738706;82;20975;-63
2022/07/08 11:30:10;;;;;;;1.35;0.68;;;;;;;22.90;100.00;99722.87;1718944;82;21099;-66
2022/07/08 11:32:37;;;;;;;4.55;0.40;;;;;;;22.86;100.00;99721.38;1740385;81;20996;-66
2022/07/08 11:35:06;;;;;;;2.12;0.60;;;;;;;22.89;100.00;99730.38;1723504;82;21143;-67